createdAt,value
2018-06-24T00:01:54.827Z,93.80
2018-06-24T00:06:57.579Z,94.00
2018-06-24T00:12:00.304Z,94.50
2018-06-24T00:17:03.767Z,94.90
2018-06-24T00:22:06.455Z,95.50
2018-06-24T00:27:09.219Z,95.40
2018-06-24T00:32:11.955Z,95.30
2018-06-24T00:37:14.666Z,95.60
2018-06-24T00:42:17.234Z,94.90
2018-06-24T00:47:19.861Z,94.70
2018-06-24T00:52:22.871Z,95.40
2018-06-24T00:57:25.466Z,96.60
2018-06-24T01:02:28.067Z,96.70
2018-06-24T01:07:30.706Z,97.00
2018-06-24T01:12:33.350Z,96.70
2018-06-24T01:17:35.975Z,96.70
2018-06-24T01:22:38.717Z,96.70
2018-06-24T01:27:41.369Z,96.80
2018-06-24T01:32:44.127Z,97.30
2018-06-24T01:37:46.723Z,97.90
2018-06-24T01:42:49.434Z,98.10
2018-06-24T01:47:52.202Z,99.00
2018-06-24T01:52:55.061Z,99.00
2018-06-24T01:57:57.704Z,99.30
2018-06-24T02:03:00.338Z,99.40
2018-06-24T02:08:03.308Z,99.60
2018-06-24T02:13:05.982Z,99.90
2018-06-24T02:18:08.679Z,99.90
2018-06-24T02:23:11.294Z,99.90
2018-06-24T02:28:13.927Z,99.90
2018-06-24T02:33:16.574Z,99.90
2018-06-24T02:38:19.249Z,99.70
2018-06-24T02:43:21.947Z,99.70
2018-06-24T02:48:24.590Z,99.60
2018-06-24T02:53:27.226Z,99.10
2018-06-24T02:58:29.895Z,99.30
2018-06-24T03:03:32.511Z,99.30
2018-06-24T03:08:35.126Z,99.20
2018-06-24T03:13:37.783Z,99.10
2018-06-24T03:18:40.403Z,99.20
2018-06-24T03:23:43.057Z,99.40
2018-06-24T03:28:45.679Z,98.80
2018-06-24T03:33:48.327Z,98.50
2018-06-24T03:38:51.183Z,98.40
2018-06-24T03:43:53.821Z,97.80
2018-06-24T03:48:56.454Z,97.50
2018-06-24T03:53:59.383Z,97.30
2018-06-24T03:59:02.006Z,96.60
2018-06-24T04:04:05.031Z,96.80
2018-06-24T04:09:08.013Z,96.40
2018-06-24T04:14:10.621Z,96.50
2018-06-24T04:19:13.287Z,96.70
2018-06-24T04:24:16.012Z,96.20
2018-06-24T04:29:18.606Z,96.70
2018-06-24T04:34:21.282Z,95.90
2018-06-24T04:39:24.091Z,95.30
2018-06-24T04:44:26.735Z,95.00
2018-06-24T04:49:29.645Z,94.50
2018-06-24T04:54:32.355Z,93.40
2018-06-24T04:59:35.007Z,93.10
2018-06-24T05:04:37.899Z,92.60
2018-06-24T05:09:40.534Z,92.80
2018-06-24T05:14:43.170Z,91.60
2018-06-24T05:19:45.860Z,90.80
2018-06-24T05:24:48.639Z,88.10
2018-06-24T05:29:51.375Z,86.80
2018-06-24T05:34:54.021Z,87.20
2018-06-24T05:39:56.742Z,84.50
2018-06-24T05:44:59.387Z,83.80
2018-06-24T05:50:02.116Z,84.60
2018-06-24T05:55:04.827Z,84.30
2018-06-24T06:00:09.610Z,86.70
2018-06-24T06:05:12.276Z,86.30
2018-06-24T06:10:15.015Z,85.20
2018-06-24T06:15:17.586Z,84.70
2018-06-24T06:20:20.231Z,81.40
2018-06-24T06:25:22.867Z,79.30
2018-06-24T06:30:25.581Z,80.10
2018-06-24T06:35:28.192Z,77.40
2018-06-24T06:40:30.899Z,76.70
2018-06-24T06:45:33.732Z,74.30
2018-06-24T06:50:36.294Z,74.60
2018-06-24T06:55:39.143Z,75.00
2018-06-24T07:00:41.795Z,74.00
2018-06-24T07:05:44.476Z,72.80
2018-06-24T07:10:47.135Z,73.00
2018-06-24T07:15:49.815Z,73.10
2018-06-24T07:20:52.586Z,71.80
2018-06-24T07:25:55.227Z,68.20
2018-06-24T07:30:57.911Z,65.60
2018-06-24T07:36:00.666Z,65.50
2018-06-24T07:41:03.348Z,65.30
2018-06-24T07:46:06.002Z,64.00
2018-06-24T07:51:08.782Z,61.90
2018-06-24T07:56:11.446Z,62.30
2018-06-24T08:01:14.177Z,60.80
2018-06-24T08:06:16.888Z,62.00
2018-06-24T08:11:19.594Z,61.70
2018-06-24T08:16:22.211Z,58.60
2018-06-24T08:21:24.948Z,57.80
2018-06-24T08:26:27.575Z,57.60
2018-06-24T08:31:30.262Z,56.00
2018-06-24T08:36:33.023Z,54.60
2018-06-24T08:41:35.718Z,53.20
2018-06-24T08:46:38.460Z,52.30
2018-06-24T08:51:41.163Z,50.90
2018-06-24T08:56:43.952Z,51.30
2018-06-24T09:01:46.830Z,49.00
2018-06-24T09:06:49.576Z,50.10
2018-06-24T09:11:52.297Z,51.60
2018-06-24T09:16:55.227Z,49.40
2018-06-24T09:21:58.945Z,48.60
2018-06-24T09:27:01.699Z,47.00
2018-06-24T09:32:04.507Z,48.20
2018-06-24T09:37:07.131Z,43.60
2018-06-24T09:42:09.896Z,47.10
2018-06-24T09:47:12.564Z,45.60
2018-06-24T09:52:17.527Z,46.60
2018-06-24T09:57:20.971Z,46.70
2018-06-24T10:02:23.596Z,45.60
2018-06-24T10:07:26.366Z,46.20
2018-06-24T10:12:29.045Z,45.90
2018-06-24T10:17:31.689Z,40.10
2018-06-24T10:22:34.736Z,38.20
2018-06-24T10:27:37.358Z,36.00
2018-06-24T10:32:39.969Z,32.60
2018-06-24T10:37:42.615Z,35.20
2018-06-24T10:42:45.271Z,31.00
2018-06-24T10:47:47.928Z,32.30
2018-06-24T10:57:53.093Z,35.10
2018-06-24T11:02:55.794Z,36.70
2018-06-24T11:07:58.649Z,34.80
2018-06-24T11:13:01.305Z,34.60
2018-06-24T11:18:04.405Z,33.90
2018-06-24T11:23:07.064Z,35.40
2018-06-24T11:28:09.673Z,36.50
2018-06-24T11:33:12.332Z,38.10
2018-06-24T11:38:14.971Z,39.70
2018-06-24T11:43:17.613Z,38.90
2018-06-24T11:48:20.249Z,36.40
2018-06-24T11:53:22.864Z,39.20
2018-06-24T11:58:25.559Z,39.10
2018-06-24T12:03:28.593Z,40.40
2018-06-24T12:08:31.230Z,39.20
2018-06-24T12:13:33.859Z,43.10
2018-06-24T12:18:36.513Z,44.50
2018-06-24T12:23:39.140Z,47.00
2018-06-24T12:28:41.831Z,46.70
2018-06-24T12:33:44.484Z,47.60
2018-06-24T12:38:47.130Z,48.60
2018-06-24T12:48:52.406Z,47.30
2018-06-24T12:53:55.076Z,46.20
2018-06-24T12:58:58.021Z,45.70
2018-06-24T13:04:00.647Z,47.40
2018-06-24T13:09:05.334Z,44.80
2018-06-24T13:14:08.059Z,43.60
2018-06-24T13:19:10.731Z,38.70
2018-06-24T13:24:13.379Z,40.10
2018-06-24T13:29:16.441Z,39.40
2018-06-24T13:34:19.103Z,41.70
2018-06-24T13:39:21.826Z,39.70
2018-06-24T13:44:24.604Z,39.60
2018-06-24T13:49:27.223Z,39.50
2018-06-24T13:54:30.552Z,36.60
2018-06-24T13:59:33.318Z,34.50
2018-06-24T14:04:36.843Z,31.20
2018-06-24T14:09:39.506Z,30.60
2018-06-24T14:14:42.168Z,27.00
2018-06-24T14:19:44.865Z,28.30
2018-06-24T14:24:47.486Z,31.70
2018-06-24T14:29:51.051Z,36.10
2018-06-24T14:34:53.877Z,38.60
2018-06-24T14:39:56.509Z,36.40
2018-06-24T14:45:01.273Z,32.40
2018-06-24T14:50:04.558Z,26.20
2018-06-24T14:55:07.275Z,23.60
2018-06-24T15:00:09.935Z,21.10
2018-06-24T15:05:12.686Z,19.40
2018-06-24T15:10:15.451Z,18.80
2018-06-24T15:15:19.091Z,19.70
2018-06-24T15:20:21.887Z,19.50
2018-06-24T15:25:24.559Z,21.50
2018-06-24T15:30:27.240Z,20.60
2018-06-24T15:35:29.935Z,22.10
2018-06-24T15:40:32.574Z,22.40
2018-06-24T15:45:35.256Z,21.40
2018-06-24T15:50:37.998Z,25.60
2018-06-24T15:55:40.667Z,29.20
2018-06-24T16:00:43.327Z,32.60
2018-06-24T16:05:45.969Z,36.00
2018-06-24T16:10:48.651Z,37.70
2018-06-24T16:15:51.316Z,37.70
2018-06-24T16:20:54.248Z,35.70
2018-06-24T16:25:57.067Z,35.90
2018-06-24T16:30:59.699Z,37.10
2018-06-24T16:36:02.416Z,38.20
2018-06-24T16:41:05.263Z,39.50
2018-06-24T16:46:07.966Z,41.50
2018-06-24T16:51:10.665Z,41.50
2018-06-24T16:56:13.961Z,41.10
2018-06-24T17:01:16.662Z,43.10
2018-06-24T17:06:19.440Z,43.50
2018-06-24T17:11:22.146Z,40.00
2018-06-24T17:16:24.871Z,42.20
2018-06-24T17:21:27.639Z,43.40
2018-06-24T17:26:31.356Z,42.50
2018-06-24T17:36:37.549Z,44.20
2018-06-24T17:41:40.387Z,45.70
2018-06-24T17:46:43.084Z,48.70
2018-06-24T17:56:48.284Z,48.80
2018-06-24T18:01:50.952Z,50.50
2018-06-24T18:06:54.124Z,51.10
2018-06-24T18:11:56.884Z,51.60
2018-06-24T18:16:59.551Z,52.00
2018-06-24T18:22:02.255Z,52.00
2018-06-24T18:27:05.952Z,53.50
2018-06-24T18:32:08.685Z,53.00
2018-06-24T18:37:11.515Z,55.10
2018-06-24T18:42:14.799Z,55.80
2018-06-24T18:47:17.730Z,58.30
2018-06-24T18:52:20.415Z,57.80
2018-06-24T18:57:23.140Z,58.50
2018-06-24T19:02:26.019Z,58.90
2018-06-24T19:07:28.715Z,59.90
2018-06-24T19:17:34.370Z,61.70
2018-06-24T19:22:37.132Z,61.40
2018-06-24T19:27:40.899Z,62.50
2018-06-24T19:32:43.616Z,68.70
2018-06-24T19:37:46.527Z,71.40
2018-06-24T19:42:51.334Z,71.40
2018-06-24T19:47:54.088Z,71.90
2018-06-24T19:57:59.685Z,74.50
2018-06-24T20:03:02.611Z,75.30
2018-06-24T20:08:05.381Z,76.20
2018-06-24T20:13:09.179Z,76.80
2018-06-24T20:18:11.844Z,77.20
2018-06-24T20:23:14.581Z,77.30
2018-06-24T20:28:17.387Z,78.30
2018-06-24T20:33:20.177Z,79.50
2018-06-24T20:38:22.874Z,80.50
2018-06-24T20:43:25.592Z,81.50
2018-06-24T20:48:28.208Z,83.00
2018-06-24T20:53:30.872Z,82.10
2018-06-24T20:58:33.500Z,80.70
2018-06-24T21:03:36.207Z,80.10
2018-06-24T21:08:38.875Z,80.30
2018-06-24T21:13:41.666Z,79.80
2018-06-24T21:18:44.310Z,80.00
2018-06-24T21:23:47.027Z,80.60
2018-06-24T21:28:49.708Z,81.80
2018-06-24T21:33:52.335Z,82.10
2018-06-24T21:38:55.016Z,83.10
2018-06-24T21:43:57.671Z,83.50
2018-06-24T21:49:00.341Z,85.00
2018-06-24T21:54:02.998Z,85.90
2018-06-24T21:59:05.677Z,86.90
2018-06-24T22:04:08.357Z,87.60
2018-06-24T22:09:12.050Z,88.00
2018-06-24T22:14:15.374Z,87.80
2018-06-24T22:19:18.153Z,87.40
2018-06-24T22:24:20.859Z,88.00
2018-06-24T22:29:23.497Z,88.20
2018-06-24T22:34:26.127Z,88.00
2018-06-24T22:39:29.751Z,89.00
2018-06-24T22:44:32.375Z,85.50
2018-06-24T22:49:35.039Z,84.10
2018-06-24T22:54:37.635Z,84.10
2018-06-24T22:59:51.848Z,84.00
2018-06-24T23:04:54.671Z,83.90
2018-06-24T23:09:57.270Z,83.70
2018-06-24T23:15:00.663Z,84.10
2018-06-24T23:20:05.470Z,84.20
2018-06-24T23:25:08.136Z,85.10
2018-06-24T23:30:10.824Z,86.60
2018-06-24T23:35:13.450Z,85.50
2018-06-24T23:45:18.633Z,85.60
2018-06-24T23:50:21.279Z,85.20
2018-06-24T23:55:23.914Z,87.50
